sensor_id;sensor_type;location;lat;lon;timestamp;temperature;humidity
78536;SHT31;67829;51.968;5.684;2024-02-04T00:00:05;12.5;78.7
78536;SHT31;67829;51.968;5.684;2024-02-04T00:02:34;12.5;78.8
78536;SHT31;67829;51.968;5.684;2024-02-04T00:05:04;12.5;78.8
78536;SHT31;67829;51.968;5.684;2024-02-04T00:07:33;12.5;78.8
78536;SHT31;67829;51.968;5.684;2024-02-04T00:10:02;12.5;78.9
78536;SHT31;67829;51.968;5.684;2024-02-04T00:12:32;12.5;78.9
78536;SHT31;67829;51.968;5.684;2024-02-04T00:15:00;12.5;78.9
78536;SHT31;67829;51.968;5.684;2024-02-04T00:17:31;12.5;79.0
78536;SHT31;67829;51.968;5.684;2024-02-04T00:20:01;12.5;79.0
78536;SHT31;67829;51.968;5.684;2024-02-04T00:22:32;12.5;79.0
78536;SHT31;67829;51.968;5.684;2024-02-04T00:25:02;12.5;79.0
78536;SHT31;67829;51.968;5.684;2024-02-04T00:27:31;12.4;79.0
78536;SHT31;67829;51.968;5.684;2024-02-04T00:30:00;12.4;79.0
78536;SHT31;67829;51.968;5.684;2024-02-04T00:32:29;12.4;79.0
78536;SHT31;67829;51.968;5.684;2024-02-04T00:34:57;12.4;78.9
78536;SHT31;67829;51.968;5.684;2024-02-04T00:37:26;12.4;78.9
78536;SHT31;67829;51.968;5.684;2024-02-04T00:39:55;12.4;78.8
78536;SHT31;67829;51.968;5.684;2024-02-04T00:42:23;12.4;79.0
78536;SHT31;67829;51.968;5.684;2024-02-04T00:44:52;12.4;79.0
78536;SHT31;67829;51.968;5.684;2024-02-04T00:47:21;12.5;79.0
78536;SHT31;67829;51.968;5.684;2024-02-04T00:49:49;12.5;78.4
78536;SHT31;67829;51.968;5.684;2024-02-04T00:52:18;12.5;78.4
78536;SHT31;67829;51.968;5.684;2024-02-04T00:54:46;12.5;78.2
78536;SHT31;67829;51.968;5.684;2024-02-04T00:57:15;12.5;78.2
78536;SHT31;67829;51.968;5.684;2024-02-04T00:59:43;12.5;78.2
78536;SHT31;67829;51.968;5.684;2024-02-04T01:02:12;12.5;78.2
78536;SHT31;67829;51.968;5.684;2024-02-04T01:04:40;12.5;78.2
78536;SHT31;67829;51.968;5.684;2024-02-04T01:07:08;12.5;78.3
78536;SHT31;67829;51.968;5.684;2024-02-04T01:09:37;12.5;78.2
78536;SHT31;67829;51.968;5.684;2024-02-04T01:12:09;12.5;78.2
78536;SHT31;67829;51.968;5.684;2024-02-04T01:14:38;12.5;78.3
78536;SHT31;67829;51.968;5.684;2024-02-04T01:17:06;12.5;78.2
78536;SHT31;67829;51.968;5.684;2024-02-04T01:19:35;12.5;78.1
78536;SHT31;67829;51.968;5.684;2024-02-04T01:22:04;12.5;78.1
78536;SHT31;67829;51.968;5.684;2024-02-04T01:24:33;12.5;78.0
78536;SHT31;67829;51.968;5.684;2024-02-04T01:27:01;12.5;77.8
78536;SHT31;67829;51.968;5.684;2024-02-04T01:29:30;12.5;77.7
78536;SHT31;67829;51.968;5.684;2024-02-04T01:31:58;12.5;77.7
78536;SHT31;67829;51.968;5.684;2024-02-04T01:34:27;12.5;77.7
78536;SHT31;67829;51.968;5.684;2024-02-04T01:36:55;12.5;77.6
78536;SHT31;67829;51.968;5.684;2024-02-04T01:39:24;12.5;77.6
78536;SHT31;67829;51.968;5.684;2024-02-04T01:41:52;12.5;77.5
78536;SHT31;67829;51.968;5.684;2024-02-04T01:44:20;12.5;77.5
78536;SHT31;67829;51.968;5.684;2024-02-04T01:46:52;12.5;77.2
78536;SHT31;67829;51.968;5.684;2024-02-04T01:49:21;12.6;77.2
78536;SHT31;67829;51.968;5.684;2024-02-04T01:51:51;12.6;77.1
78536;SHT31;67829;51.968;5.684;2024-02-04T01:54:20;12.6;77.0
78536;SHT31;67829;51.968;5.684;2024-02-04T01:56:52;12.6;77.0
78536;SHT31;67829;51.968;5.684;2024-02-04T01:59:23;12.6;76.9
78536;SHT31;67829;51.968;5.684;2024-02-04T02:01:59;12.6;76.8
78536;SHT31;67829;51.968;5.684;2024-02-04T02:04:29;12.6;76.8
78536;SHT31;67829;51.968;5.684;2024-02-04T02:06:58;12.6;76.7
78536;SHT31;67829;51.968;5.684;2024-02-04T02:09:29;12.6;76.8
78536;SHT31;67829;51.968;5.684;2024-02-04T02:12:18;12.6;76.7
78536;SHT31;67829;51.968;5.684;2024-02-04T02:14:41;12.6;76.9
78536;SHT31;67829;51.968;5.684;2024-02-04T02:17:15;12.6;77.0
78536;SHT31;67829;51.968;5.684;2024-02-04T02:19:51;12.6;77.1
78536;SHT31;67829;51.968;5.684;2024-02-04T02:22:30;12.6;77.0
78536;SHT31;67829;51.968;5.684;2024-02-04T02:25:06;12.6;76.8
78536;SHT31;67829;51.968;5.684;2024-02-04T02:27:49;12.6;76.7
78536;SHT31;67829;51.968;5.684;2024-02-04T02:30:18;12.6;76.7
78536;SHT31;67829;51.968;5.684;2024-02-04T02:32:48;12.6;76.7
78536;SHT31;67829;51.968;5.684;2024-02-04T02:35:17;12.6;76.6
78536;SHT31;67829;51.968;5.684;2024-02-04T02:37:55;12.6;76.4
78536;SHT31;67829;51.968;5.684;2024-02-04T02:40:30;12.7;76.2
78536;SHT31;67829;51.968;5.684;2024-02-04T02:43:02;12.7;76.1
78536;SHT31;67829;51.968;5.684;2024-02-04T02:45:31;12.7;76.1
78536;SHT31;67829;51.968;5.684;2024-02-04T02:48:01;12.7;76.0
78536;SHT31;67829;51.968;5.684;2024-02-04T02:50:32;12.7;75.9
78536;SHT31;67829;51.968;5.684;2024-02-04T02:53:00;12.8;76.0
78536;SHT31;67829;51.968;5.684;2024-02-04T02:55:29;12.8;76.0
78536;SHT31;67829;51.968;5.684;2024-02-04T02:57:57;12.8;76.1
78536;SHT31;67829;51.968;5.684;2024-02-04T03:00:26;12.8;76.2
78536;SHT31;67829;51.968;5.684;2024-02-04T03:02:54;12.8;76.4
78536;SHT31;67829;51.968;5.684;2024-02-04T03:05:24;12.7;76.4
78536;SHT31;67829;51.968;5.684;2024-02-04T03:07:52;12.7;76.2
78536;SHT31;67829;51.968;5.684;2024-02-04T03:10:21;12.7;76.3
78536;SHT31;67829;51.968;5.684;2024-02-04T03:12:49;12.7;76.3
78536;SHT31;67829;51.968;5.684;2024-02-04T03:15:17;12.7;76.3
78536;SHT31;67829;51.968;5.684;2024-02-04T03:17:46;12.7;76.5
78536;SHT31;67829;51.968;5.684;2024-02-04T03:20:15;12.7;76.5
78536;SHT31;67829;51.968;5.684;2024-02-04T03:22:43;12.7;76.3
78536;SHT31;67829;51.968;5.684;2024-02-04T03:25:13;12.6;76.2
78536;SHT31;67829;51.968;5.684;2024-02-04T03:27:42;12.6;76.1
78536;SHT31;67829;51.968;5.684;2024-02-04T03:30:12;12.6;75.8
78536;SHT31;67829;51.968;5.684;2024-02-04T03:32:41;12.6;75.4
78536;SHT31;67829;51.968;5.684;2024-02-04T03:35:10;12.6;75.3
78536;SHT31;67829;51.968;5.684;2024-02-04T03:37:38;12.5;75.1
78536;SHT31;67829;51.968;5.684;2024-02-04T03:40:08;12.5;74.9
78536;SHT31;67829;51.968;5.684;2024-02-04T03:42:37;12.5;74.8
78536;SHT31;67829;51.968;5.684;2024-02-04T03:45:08;12.5;74.7
78536;SHT31;67829;51.968;5.684;2024-02-04T03:47:37;12.5;74.4
78536;SHT31;67829;51.968;5.684;2024-02-04T03:50:06;12.5;73.9
78536;SHT31;67829;51.968;5.684;2024-02-04T03:52:35;12.5;73.5
78536;SHT31;67829;51.968;5.684;2024-02-04T03:55:03;12.4;73.6
78536;SHT31;67829;51.968;5.684;2024-02-04T03:57:32;12.4;73.7
78536;SHT31;67829;51.968;5.684;2024-02-04T04:00:01;12.4;73.9
78536;SHT31;67829;51.968;5.684;2024-02-04T04:02:30;12.4;74.1
78536;SHT31;67829;51.968;5.684;2024-02-04T04:04:59;12.4;74.1
78536;SHT31;67829;51.968;5.684;2024-02-04T04:07:27;12.4;74.2
78536;SHT31;67829;51.968;5.684;2024-02-04T04:09:56;12.3;74.1
78536;SHT31;67829;51.968;5.684;2024-02-04T04:12:24;12.3;74.2
78536;SHT31;67829;51.968;5.684;2024-02-04T04:14:53;12.3;74.2
78536;SHT31;67829;51.968;5.684;2024-02-04T04:17:21;12.3;74.2
78536;SHT31;67829;51.968;5.684;2024-02-04T04:19:50;12.3;74.0
78536;SHT31;67829;51.968;5.684;2024-02-04T04:22:18;12.3;73.9
78536;SHT31;67829;51.968;5.684;2024-02-04T04:24:47;12.3;73.8
78536;SHT31;67829;51.968;5.684;2024-02-04T04:27:15;12.3;73.8
78536;SHT31;67829;51.968;5.684;2024-02-04T04:29:43;12.3;73.8
78536;SHT31;67829;51.968;5.684;2024-02-04T04:32:12;12.3;74.1
78536;SHT31;67829;51.968;5.684;2024-02-04T04:34:41;12.3;74.1
78536;SHT31;67829;51.968;5.684;2024-02-04T04:37:10;12.3;74.2
78536;SHT31;67829;51.968;5.684;2024-02-04T04:39:38;12.3;74.2
78536;SHT31;67829;51.968;5.684;2024-02-04T04:42:06;12.2;74.5
78536;SHT31;67829;51.968;5.684;2024-02-04T04:44:35;12.2;74.5
78536;SHT31;67829;51.968;5.684;2024-02-04T04:47:03;12.2;74.6
78536;SHT31;67829;51.968;5.684;2024-02-04T04:49:32;12.2;74.5
78536;SHT31;67829;51.968;5.684;2024-02-04T04:52:01;12.2;74.5
78536;SHT31;67829;51.968;5.684;2024-02-04T04:54:29;12.2;74.5
78536;SHT31;67829;51.968;5.684;2024-02-04T04:56:58;12.2;74.6
78536;SHT31;67829;51.968;5.684;2024-02-04T04:59:26;12.2;74.5
78536;SHT31;67829;51.968;5.684;2024-02-04T05:01:55;12.2;74.6
78536;SHT31;67829;51.968;5.684;2024-02-04T05:04:23;12.2;74.8
78536;SHT31;67829;51.968;5.684;2024-02-04T05:06:52;12.2;75.0
78536;SHT31;67829;51.968;5.684;2024-02-04T05:09:23;12.2;74.9
78536;SHT31;67829;51.968;5.684;2024-02-04T05:11:53;12.2;75.0
78536;SHT31;67829;51.968;5.684;2024-02-04T05:14:22;12.2;74.7
78536;SHT31;67829;51.968;5.684;2024-02-04T05:16:50;12.2;74.6
78536;SHT31;67829;51.968;5.684;2024-02-04T05:19:18;12.2;74.8
78536;SHT31;67829;51.968;5.684;2024-02-04T05:21:47;12.2;74.8
78536;SHT31;67829;51.968;5.684;2024-02-04T05:24:16;12.2;74.9
78536;SHT31;67829;51.968;5.684;2024-02-04T05:26:44;12.2;74.5
78536;SHT31;67829;51.968;5.684;2024-02-04T05:29:13;12.2;74.4
78536;SHT31;67829;51.968;5.684;2024-02-04T05:31:44;12.2;74.8
78536;SHT31;67829;51.968;5.684;2024-02-04T05:34:13;12.2;74.9
78536;SHT31;67829;51.968;5.684;2024-02-04T05:36:42;12.2;74.9
78536;SHT31;67829;51.968;5.684;2024-02-04T05:39:11;12.2;75.1
78536;SHT31;67829;51.968;5.684;2024-02-04T05:41:41;12.2;75.1
78536;SHT31;67829;51.968;5.684;2024-02-04T05:44:09;12.2;75.2
78536;SHT31;67829;51.968;5.684;2024-02-04T05:46:39;12.2;75.3
78536;SHT31;67829;51.968;5.684;2024-02-04T05:49:09;12.2;75.1
78536;SHT31;67829;51.968;5.684;2024-02-04T05:51:40;12.2;75.0
78536;SHT31;67829;51.968;5.684;2024-02-04T05:54:09;12.1;75.0
78536;SHT31;67829;51.968;5.684;2024-02-04T05:56:40;12.1;74.9
78536;SHT31;67829;51.968;5.684;2024-02-04T05:59:09;12.1;74.8
78536;SHT31;67829;51.968;5.684;2024-02-04T06:01:38;12.1;75.0
78536;SHT31;67829;51.968;5.684;2024-02-04T06:04:06;12.1;75.1
78536;SHT31;67829;51.968;5.684;2024-02-04T06:06:36;12.1;75.4
78536;SHT31;67829;51.968;5.684;2024-02-04T06:09:05;12.1;75.6
78536;SHT31;67829;51.968;5.684;2024-02-04T06:11:35;12.1;75.8
78536;SHT31;67829;51.968;5.684;2024-02-04T06:14:05;12.1;76.0
78536;SHT31;67829;51.968;5.684;2024-02-04T06:16:33;12.1;76.3
78536;SHT31;67829;51.968;5.684;2024-02-04T06:19:02;12.1;76.5
78536;SHT31;67829;51.968;5.684;2024-02-04T06:21:32;12.1;76.6
78536;SHT31;67829;51.968;5.684;2024-02-04T06:24:00;12.1;76.8
78536;SHT31;67829;51.968;5.684;2024-02-04T06:26:28;12.1;76.8
78536;SHT31;67829;51.968;5.684;2024-02-04T06:28:57;12.1;76.9
78536;SHT31;67829;51.968;5.684;2024-02-04T06:31:26;12.1;76.9
78536;SHT31;67829;51.968;5.684;2024-02-04T06:33:54;12.1;76.9
78536;SHT31;67829;51.968;5.684;2024-02-04T06:36:23;12.1;77.0
78536;SHT31;67829;51.968;5.684;2024-02-04T06:38:52;12.1;77.1
78536;SHT31;67829;51.968;5.684;2024-02-04T06:41:20;12.1;77.1
78536;SHT31;67829;51.968;5.684;2024-02-04T06:43:49;12.1;77.2
78536;SHT31;67829;51.968;5.684;2024-02-04T06:46:25;12.2;77.3
78536;SHT31;67829;51.968;5.684;2024-02-04T06:48:54;12.2;77.4
78536;SHT31;67829;51.968;5.684;2024-02-04T06:51:23;12.2;77.2
78536;SHT31;67829;51.968;5.684;2024-02-04T06:53:54;12.2;76.8
78536;SHT31;67829;51.968;5.684;2024-02-04T06:56:22;12.2;76.8
78536;SHT31;67829;51.968;5.684;2024-02-04T06:58:51;12.2;76.8
78536;SHT31;67829;51.968;5.684;2024-02-04T07:01:22;12.2;76.9
78536;SHT31;67829;51.968;5.684;2024-02-04T07:03:50;12.2;76.9
78536;SHT31;67829;51.968;5.684;2024-02-04T07:06:18;12.2;76.9
78536;SHT31;67829;51.968;5.684;2024-02-04T07:08:47;12.2;77.0
78536;SHT31;67829;51.968;5.684;2024-02-04T07:11:16;12.1;77.0
78536;SHT31;67829;51.968;5.684;2024-02-04T07:13:44;12.1;77.1
78536;SHT31;67829;51.968;5.684;2024-02-04T07:16:13;12.1;77.1
78536;SHT31;67829;51.968;5.684;2024-02-04T07:18:41;12.1;77.4
78536;SHT31;67829;51.968;5.684;2024-02-04T07:21:10;12.1;77.4
78536;SHT31;67829;51.968;5.684;2024-02-04T07:23:38;12.1;77.4
78536;SHT31;67829;51.968;5.684;2024-02-04T07:26:07;12.1;77.4
78536;SHT31;67829;51.968;5.684;2024-02-04T07:28:36;12.1;77.4
78536;SHT31;67829;51.968;5.684;2024-02-04T07:31:05;12.1;77.3
78536;SHT31;67829;51.968;5.684;2024-02-04T07:33:34;12.1;77.2
78536;SHT31;67829;51.968;5.684;2024-02-04T07:36:03;12.1;77.1
78536;SHT31;67829;51.968;5.684;2024-02-04T07:38:32;12.1;77.2
78536;SHT31;67829;51.968;5.684;2024-02-04T07:41:00;12.1;77.2
78536;SHT31;67829;51.968;5.684;2024-02-04T07:43:28;12.1;77.2
78536;SHT31;67829;51.968;5.684;2024-02-04T07:45:57;12.1;77.1
78536;SHT31;67829;51.968;5.684;2024-02-04T07:48:27;12.1;77.2
78536;SHT31;67829;51.968;5.684;2024-02-04T07:50:57;12.1;77.2
78536;SHT31;67829;51.968;5.684;2024-02-04T07:53:26;12.1;77.2
78536;SHT31;67829;51.968;5.684;2024-02-04T07:55:54;12.1;77.1
78536;SHT31;67829;51.968;5.684;2024-02-04T07:58:23;12.1;77.1
78536;SHT31;67829;51.968;5.684;2024-02-04T08:00:53;12.1;76.9
78536;SHT31;67829;51.968;5.684;2024-02-04T08:03:21;12.1;76.7
78536;SHT31;67829;51.968;5.684;2024-02-04T08:05:50;12.1;76.6
78536;SHT31;67829;51.968;5.684;2024-02-04T08:08:19;12.1;76.5
78536;SHT31;67829;51.968;5.684;2024-02-04T08:10:47;12.1;76.4
78536;SHT31;67829;51.968;5.684;2024-02-04T08:13:16;12.1;76.4
78536;SHT31;67829;51.968;5.684;2024-02-04T08:15:45;12.1;76.1
78536;SHT31;67829;51.968;5.684;2024-02-04T08:18:13;12.2;76.1
78536;SHT31;67829;51.968;5.684;2024-02-04T08:20:42;12.2;75.8
78536;SHT31;67829;51.968;5.684;2024-02-04T08:23:11;12.2;75.9
78536;SHT31;67829;51.968;5.684;2024-02-04T08:25:39;12.2;75.8
78536;SHT31;67829;51.968;5.684;2024-02-04T08:28:09;12.2;76.0
78536;SHT31;67829;51.968;5.684;2024-02-04T08:30:38;12.2;75.9
78536;SHT31;67829;51.968;5.684;2024-02-04T08:33:07;12.2;75.8
78536;SHT31;67829;51.968;5.684;2024-02-04T08:35:35;12.2;75.6
78536;SHT31;67829;51.968;5.684;2024-02-04T08:38:04;12.2;75.9
78536;SHT31;67829;51.968;5.684;2024-02-04T08:40:33;12.2;76.0
78536;SHT31;67829;51.968;5.684;2024-02-04T08:43:01;12.2;75.9
78536;SHT31;67829;51.968;5.684;2024-02-04T08:45:30;12.2;75.9
78536;SHT31;67829;51.968;5.684;2024-02-04T08:47:58;12.2;76.0
78536;SHT31;67829;51.968;5.684;2024-02-04T08:50:27;12.2;75.9
78536;SHT31;67829;51.968;5.684;2024-02-04T08:52:56;12.2;75.8
78536;SHT31;67829;51.968;5.684;2024-02-04T08:55:24;12.2;75.8
78536;SHT31;67829;51.968;5.684;2024-02-04T08:57:53;12.2;75.7
78536;SHT31;67829;51.968;5.684;2024-02-04T09:00:22;12.2;76.0
78536;SHT31;67829;51.968;5.684;2024-02-04T09:02:50;12.2;76.2
78536;SHT31;67829;51.968;5.684;2024-02-04T09:05:19;12.2;76.4
78536;SHT31;67829;51.968;5.684;2024-02-04T09:07:47;12.2;76.6
78536;SHT31;67829;51.968;5.684;2024-02-04T09:10:18;12.2;76.8
78536;SHT31;67829;51.968;5.684;2024-02-04T09:12:47;12.2;77.0
78536;SHT31;67829;51.968;5.684;2024-02-04T09:15:16;12.2;77.2
78536;SHT31;67829;51.968;5.684;2024-02-04T09:17:44;12.2;77.4
78536;SHT31;67829;51.968;5.684;2024-02-04T09:20:13;12.2;77.6
78536;SHT31;67829;51.968;5.684;2024-02-04T09:22:41;12.2;77.7
78536;SHT31;67829;51.968;5.684;2024-02-04T09:25:10;12.2;77.7
78536;SHT31;67829;51.968;5.684;2024-02-04T09:27:39;12.2;77.7
78536;SHT31;67829;51.968;5.684;2024-02-04T09:30:09;12.2;77.7
78536;SHT31;67829;51.968;5.684;2024-02-04T09:32:37;12.3;77.8
78536;SHT31;67829;51.968;5.684;2024-02-04T09:35:09;12.3;77.8
78536;SHT31;67829;51.968;5.684;2024-02-04T09:37:37;12.3;77.9
78536;SHT31;67829;51.968;5.684;2024-02-04T09:40:08;12.3;77.6
78536;SHT31;67829;51.968;5.684;2024-02-04T09:42:37;12.3;77.7
78536;SHT31;67829;51.968;5.684;2024-02-04T09:45:09;12.4;77.7
78536;SHT31;67829;51.968;5.684;2024-02-04T09:47:40;12.4;77.6
78536;SHT31;67829;51.968;5.684;2024-02-04T09:50:11;12.4;77.2
78536;SHT31;67829;51.968;5.684;2024-02-04T09:52:40;12.4;77.2
78536;SHT31;67829;51.968;5.684;2024-02-04T09:55:15;12.4;77.0
78536;SHT31;67829;51.968;5.684;2024-02-04T09:57:44;12.5;76.7
78536;SHT31;67829;51.968;5.684;2024-02-04T10:00:14;12.5;76.5
78536;SHT31;67829;51.968;5.684;2024-02-04T10:02:47;12.5;76.6
78536;SHT31;67829;51.968;5.684;2024-02-04T10:05:16;12.5;76.4
78536;SHT31;67829;51.968;5.684;2024-02-04T10:07:45;12.6;76.4
78536;SHT31;67829;51.968;5.684;2024-02-04T10:10:13;12.6;76.4
78536;SHT31;67829;51.968;5.684;2024-02-04T10:12:42;12.6;76.3
78536;SHT31;67829;51.968;5.684;2024-02-04T10:15:11;12.6;76.4
78536;SHT31;67829;51.968;5.684;2024-02-04T10:17:45;12.6;76.4
78536;SHT31;67829;51.968;5.684;2024-02-04T10:20:14;12.7;76.2
78536;SHT31;67829;51.968;5.684;2024-02-04T10:22:43;12.7;76.1
78536;SHT31;67829;51.968;5.684;2024-02-04T10:25:12;12.8;75.8
78536;SHT31;67829;51.968;5.684;2024-02-04T10:27:43;12.8;75.8
78536;SHT31;67829;51.968;5.684;2024-02-04T10:30:13;12.8;75.7
78536;SHT31;67829;51.968;5.684;2024-02-04T10:32:45;12.8;75.3
78536;SHT31;67829;51.968;5.684;2024-02-04T10:35:13;12.9;75.1
78536;SHT31;67829;51.968;5.684;2024-02-04T10:37:45;12.9;74.9
78536;SHT31;67829;51.968;5.684;2024-02-04T10:40:16;12.9;74.8
78536;SHT31;67829;51.968;5.684;2024-02-04T10:42:46;12.9;74.8
78536;SHT31;67829;51.968;5.684;2024-02-04T10:45:17;12.9;74.3
78536;SHT31;67829;51.968;5.684;2024-02-04T10:47:55;13.0;74.1
78536;SHT31;67829;51.968;5.684;2024-02-04T10:50:27;13.0;73.7
78536;SHT31;67829;51.968;5.684;2024-02-04T10:52:58;13.0;73.6
78536;SHT31;67829;51.968;5.684;2024-02-04T10:55:31;13.1;73.2
78536;SHT31;67829;51.968;5.684;2024-02-04T10:58:01;13.1;72.9
78536;SHT31;67829;51.968;5.684;2024-02-04T11:00:31;13.1;72.9
78536;SHT31;67829;51.968;5.684;2024-02-04T11:03:00;13.1;73.0
78536;SHT31;67829;51.968;5.684;2024-02-04T11:05:32;13.1;73.5
78536;SHT31;67829;51.968;5.684;2024-02-04T11:08:08;13.1;74.0
78536;SHT31;67829;51.968;5.684;2024-02-04T11:10:40;13.1;74.4
78536;SHT31;67829;51.968;5.684;2024-02-04T11:13:10;13.1;74.8
78536;SHT31;67829;51.968;5.684;2024-02-04T11:15:43;13.0;74.9
78536;SHT31;67829;51.968;5.684;2024-02-04T11:20:18;13.0;75.1
78536;SHT31;67829;51.968;5.684;2024-02-04T11:23:05;13.0;75.7
78536;SHT31;67829;51.968;5.684;2024-02-04T11:25:46;13.0;75.9
78536;SHT31;67829;51.968;5.684;2024-02-04T11:28:18;13.0;76.1
78536;SHT31;67829;51.968;5.684;2024-02-04T11:30:49;13.0;76.3
78536;SHT31;67829;51.968;5.684;2024-02-04T11:33:21;13.0;76.5
78536;SHT31;67829;51.968;5.684;2024-02-04T11:36:02;13.0;76.5
78536;SHT31;67829;51.968;5.684;2024-02-04T11:38:32;13.0;76.6
78536;SHT31;67829;51.968;5.684;2024-02-04T11:41:02;12.9;76.8
78536;SHT31;67829;51.968;5.684;2024-02-04T11:43:32;12.9;77.0
78536;SHT31;67829;51.968;5.684;2024-02-04T11:46:03;12.9;77.1
78536;SHT31;67829;51.968;5.684;2024-02-04T11:48:33;12.9;77.3
78536;SHT31;67829;51.968;5.684;2024-02-04T11:51:04;12.9;77.3
78536;SHT31;67829;51.968;5.684;2024-02-04T11:53:34;12.9;77.3
78536;SHT31;67829;51.968;5.684;2024-02-04T11:56:05;12.9;77.3
78536;SHT31;67829;51.968;5.684;2024-02-04T11:58:35;12.9;77.4
78536;SHT31;67829;51.968;5.684;2024-02-04T12:01:09;12.9;77.3
78536;SHT31;67829;51.968;5.684;2024-02-04T12:03:38;12.9;77.5
78536;SHT31;67829;51.968;5.684;2024-02-04T12:06:07;12.9;77.6
78536;SHT31;67829;51.968;5.684;2024-02-04T12:08:42;12.9;77.5
78536;SHT31;67829;51.968;5.684;2024-02-04T12:11:11;12.9;77.6
78536;SHT31;67829;51.968;5.684;2024-02-04T12:13:40;12.9;77.7
78536;SHT31;67829;51.968;5.684;2024-02-04T12:16:09;12.9;77.7
78536;SHT31;67829;51.968;5.684;2024-02-04T12:18:51;12.9;77.7
78536;SHT31;67829;51.968;5.684;2024-02-04T12:21:20;12.9;77.7
78536;SHT31;67829;51.968;5.684;2024-02-04T12:23:52;12.9;77.4
78536;SHT31;67829;51.968;5.684;2024-02-04T12:26:22;12.9;77.2
78536;SHT31;67829;51.968;5.684;2024-02-04T12:28:51;12.9;77.3
78536;SHT31;67829;51.968;5.684;2024-02-04T12:31:22;12.9;77.3
78536;SHT31;67829;51.968;5.684;2024-02-04T12:33:58;12.9;77.4
78536;SHT31;67829;51.968;5.684;2024-02-04T12:36:28;12.9;77.1
78536;SHT31;67829;51.968;5.684;2024-02-04T12:38:59;12.9;77.6
78536;SHT31;67829;51.968;5.684;2024-02-04T12:41:29;12.9;77.4
78536;SHT31;67829;51.968;5.684;2024-02-04T12:43:59;12.9;77.3
78536;SHT31;67829;51.968;5.684;2024-02-04T12:46:30;12.9;77.3
78536;SHT31;67829;51.968;5.684;2024-02-04T12:48:59;12.9;76.8
78536;SHT31;67829;51.968;5.684;2024-02-04T12:51:30;12.9;77.0
78536;SHT31;67829;51.968;5.684;2024-02-04T12:54:08;12.9;76.7
78536;SHT31;67829;51.968;5.684;2024-02-04T12:56:44;12.9;76.5
78536;SHT31;67829;51.968;5.684;2024-02-04T12:59:26;12.9;76.3
78536;SHT31;67829;51.968;5.684;2024-02-04T13:01:58;12.9;75.9
78536;SHT31;67829;51.968;5.684;2024-02-04T13:04:37;12.9;75.7
78536;SHT31;67829;51.968;5.684;2024-02-04T13:07:09;12.9;75.7
78536;SHT31;67829;51.968;5.684;2024-02-04T13:09:39;12.9;75.5
78536;SHT31;67829;51.968;5.684;2024-02-04T13:12:10;12.9;75.3
78536;SHT31;67829;51.968;5.684;2024-02-04T13:14:39;12.9;75.3
78536;SHT31;67829;51.968;5.684;2024-02-04T13:17:08;12.9;75.6
78536;SHT31;67829;51.968;5.684;2024-02-04T13:19:39;12.9;75.9
78536;SHT31;67829;51.968;5.684;2024-02-04T13:22:10;12.9;76.1
78536;SHT31;67829;51.968;5.684;2024-02-04T13:24:40;12.8;76.2
78536;SHT31;67829;51.968;5.684;2024-02-04T13:27:09;12.8;76.3
78536;SHT31;67829;51.968;5.684;2024-02-04T13:29:37;12.8;76.6
78536;SHT31;67829;51.968;5.684;2024-02-04T13:32:06;12.8;76.6
78536;SHT31;67829;51.968;5.684;2024-02-04T13:34:35;12.8;76.6
78536;SHT31;67829;51.968;5.684;2024-02-04T13:37:05;12.7;76.5
78536;SHT31;67829;51.968;5.684;2024-02-04T13:39:34;12.7;76.5
78536;SHT31;67829;51.968;5.684;2024-02-04T13:42:02;12.7;76.4
78536;SHT31;67829;51.968;5.684;2024-02-04T13:44:31;12.7;76.6
78536;SHT31;67829;51.968;5.684;2024-02-04T13:46:59;12.7;76.8
78536;SHT31;67829;51.968;5.684;2024-02-04T13:49:27;12.7;76.6
78536;SHT31;67829;51.968;5.684;2024-02-04T13:51:56;12.7;76.8
78536;SHT31;67829;51.968;5.684;2024-02-04T13:54:24;12.7;76.7
78536;SHT31;67829;51.968;5.684;2024-02-04T13:56:55;12.8;76.6
78536;SHT31;67829;51.968;5.684;2024-02-04T13:59:23;12.8;76.7
78536;SHT31;67829;51.968;5.684;2024-02-04T14:01:51;12.8;76.6
78536;SHT31;67829;51.968;5.684;2024-02-04T14:04:20;12.8;76.7
78536;SHT31;67829;51.968;5.684;2024-02-04T14:06:48;12.8;76.4
78536;SHT31;67829;51.968;5.684;2024-02-04T14:09:18;12.8;76.3
78536;SHT31;67829;51.968;5.684;2024-02-04T14:11:47;12.8;76.2
78536;SHT31;67829;51.968;5.684;2024-02-04T14:14:15;12.8;76.3
78536;SHT31;67829;51.968;5.684;2024-02-04T14:16:44;12.8;76.3
78536;SHT31;67829;51.968;5.684;2024-02-04T14:19:13;12.8;76.4
78536;SHT31;67829;51.968;5.684;2024-02-04T14:21:43;12.8;76.4
78536;SHT31;67829;51.968;5.684;2024-02-04T14:24:11;12.8;76.7
78536;SHT31;67829;51.968;5.684;2024-02-04T14:26:40;12.8;76.7
78536;SHT31;67829;51.968;5.684;2024-02-04T14:29:10;12.8;76.6
78536;SHT31;67829;51.968;5.684;2024-02-04T14:31:39;12.8;76.8
78536;SHT31;67829;51.968;5.684;2024-02-04T14:34:07;12.9;76.7
78536;SHT31;67829;51.968;5.684;2024-02-04T14:36:36;12.9;76.3
78536;SHT31;67829;51.968;5.684;2024-02-04T14:39:05;12.9;76.4
78536;SHT31;67829;51.968;5.684;2024-02-04T14:41:36;12.9;76.3
78536;SHT31;67829;51.968;5.684;2024-02-04T14:44:06;12.9;76.4
78536;SHT31;67829;51.968;5.684;2024-02-04T14:46:39;12.9;76.2
78536;SHT31;67829;51.968;5.684;2024-02-04T14:49:09;12.9;76.1
78536;SHT31;67829;51.968;5.684;2024-02-04T14:51:39;12.9;75.8
78536;SHT31;67829;51.968;5.684;2024-02-04T14:54:08;12.9;75.7
78536;SHT31;67829;51.968;5.684;2024-02-04T14:56:39;12.9;75.4
78536;SHT31;67829;51.968;5.684;2024-02-04T14:59:10;12.9;75.7
78536;SHT31;67829;51.968;5.684;2024-02-04T15:01:39;12.9;75.7
78536;SHT31;67829;51.968;5.684;2024-02-04T15:04:12;12.9;75.4
78536;SHT31;67829;51.968;5.684;2024-02-04T15:06:41;13.0;75.2
78536;SHT31;67829;51.968;5.684;2024-02-04T15:09:10;13.0;75.2
78536;SHT31;67829;51.968;5.684;2024-02-04T15:11:42;13.0;74.9
78536;SHT31;67829;51.968;5.684;2024-02-04T15:14:11;13.0;75.0
78536;SHT31;67829;51.968;5.684;2024-02-04T15:16:44;13.0;75.0
78536;SHT31;67829;51.968;5.684;2024-02-04T15:19:14;13.0;75.0
78536;SHT31;67829;51.968;5.684;2024-02-04T15:21:43;13.0;75.0
78536;SHT31;67829;51.968;5.684;2024-02-04T15:24:13;13.0;75.2
78536;SHT31;67829;51.968;5.684;2024-02-04T15:26:43;13.0;75.1
78536;SHT31;67829;51.968;5.684;2024-02-04T15:29:13;13.0;74.9
78536;SHT31;67829;51.968;5.684;2024-02-04T15:31:45;13.1;75.1
78536;SHT31;67829;51.968;5.684;2024-02-04T15:34:17;13.1;75.1
78536;SHT31;67829;51.968;5.684;2024-02-04T15:36:45;13.1;75.1
78536;SHT31;67829;51.968;5.684;2024-02-04T15:39:14;13.1;74.9
78536;SHT31;67829;51.968;5.684;2024-02-04T15:41:43;13.1;75.1
78536;SHT31;67829;51.968;5.684;2024-02-04T15:44:12;13.1;75.0
78536;SHT31;67829;51.968;5.684;2024-02-04T15:46:42;13.1;74.6
78536;SHT31;67829;51.968;5.684;2024-02-04T15:49:13;13.1;74.5
78536;SHT31;67829;51.968;5.684;2024-02-04T15:51:46;13.1;74.4
78536;SHT31;67829;51.968;5.684;2024-02-04T15:54:17;13.1;74.1
78536;SHT31;67829;51.968;5.684;2024-02-04T15:56:54;13.1;73.9
78536;SHT31;67829;51.968;5.684;2024-02-04T15:59:27;13.1;74.3
78536;SHT31;67829;51.968;5.684;2024-02-04T16:02:01;13.1;73.8
78536;SHT31;67829;51.968;5.684;2024-02-04T16:04:31;13.2;73.8
78536;SHT31;67829;51.968;5.684;2024-02-04T16:07:00;13.2;73.7
78536;SHT31;67829;51.968;5.684;2024-02-04T16:09:30;13.1;73.6
78536;SHT31;67829;51.968;5.684;2024-02-04T16:12:05;13.1;73.6
78536;SHT31;67829;51.968;5.684;2024-02-04T16:14:36;13.1;73.6
78536;SHT31;67829;51.968;5.684;2024-02-04T16:17:12;13.1;73.7
78536;SHT31;67829;51.968;5.684;2024-02-04T16:19:44;13.1;73.7